Video statistics

Date Title Duration Views Likes Dislikes Comments Transcribed Length
2013-02-04 Crash Course Chemistry Preview! 01:51 109,937 4,898 19 1,757
2013-02-11 The Nucleus: Crash Course Chemistry #1 10:12 4,177,667 42,136 566 6,096
2013-02-18 Unit Conversion & Significant Figures: Crash Course Chemistry #2 11:24 2,239,413 29,385 476 4,969
2013-02-25 The Creation of Chemistry - The Fundamental Laws: Crash Course Chemistry #3 10:59 1,495,201 15,199 210 1,767
2013-03-04 The Periodic Table: Crash Course Chemistry #4 11:22 3,277,178 30,683 928 2,608
2013-03-12 The Electron: Crash Course Chemistry #5 12:48 1,981,028 21,063 567 3,362
2013-03-18 Stoichiometry: Chemistry for Massive Creatures - Crash Course Chemistry #6 12:47 1,993,708 19,668 472 2,916
2013-03-25 Water and Solutions -- for Dirty Laundry: Crash Course Chemistry #7 13:34 1,151,191 10,101 160 1,957
2013-04-01 Crash Course Out-Takes Chemistry #1 06:45 113,953 2,857 42 551
2013-04-09 Acid-Base Reactions in Solution: Crash Course Chemistry #8 11:17 1,499,557 11,842 291 2,085
2013-04-15 Precipitation Reactions: Crash Course Chemistry #9 11:31 1,160,333 9,162 274 1,145
2013-04-23 Redox Reactions: Crash Course Chemistry #10 11:13 1,800,036 15,789 540 2,282
2013-04-30 How To Speak Chemistrian: Crash Course Chemistry #11 10:43 941,186 10,901 205 1,431
2013-05-07 The Ideal Gas Law: Crash Course Chemistry #12 09:03 1,227,220 11,235 241 1,313
2013-05-13 Ideal Gas Problems: Crash Course Chemistry #13 11:45 619,649 6,443 86 1,017
2013-05-20 Real Gases: Crash Course Chemistry #14 11:35 520,073 5,870 80 750
2013-05-28 Partial Pressures & Vapor Pressure: Crash Course Chemistry #15 11:55 645,009 5,707 137 748
2013-06-03 Passing Gases: Effusion, Diffusion and the Velocity of a Gas - Crash Course Chemistry #16 11:26 374,295 3,766 57 492
2013-06-10 Energy & Chemistry: Crash Course Chemistry #17 09:26 811,267 7,210 141 1,378
2013-06-17 Enthalpy: Crash Course Chemistry #18 11:24 1,379,671 11,453 292 1,255
2013-06-25 Calorimetry: Crash Course Chemistry #19 11:57 846,983 6,692 140 763
2013-07-01 Entropy: Embrace the Chaos! Crash Course Chemistry #20 13:41 1,019,623 11,778 279 1,684
2013-07-08 Lab Techniques & Safety: Crash Course Chemistry #21 09:03 857,137 9,049 120 1,273
2013-07-16 Atomic Hook-Ups - Types of Chemical Bonds: Crash Course Chemistry #22 09:46 1,395,479 12,147 411 1,332
2013-07-22 Polar & Non-Polar Molecules: Crash Course Chemistry #23 10:46 1,889,945 15,125 744 1,392
2013-07-30 Bonding Models and Lewis Structures: Crash Course Chemistry #24 11:38 1,270,554 11,183 363 1,046
2013-08-05 Orbitals: Crash Course Chemistry #25 10:52 1,463,736 14,500 489 1,640
2013-08-13 Liquids: Crash Course Chemistry #26 11:04 423,413 4,438 85 1,038
2013-08-19 Solutions: Crash Course Chemistry #27 08:21 662,981 5,435 140 493
2013-08-26 Equilibrium: Crash Course Chemistry #28 10:57 1,096,327 9,776 205 815
2013-09-03 Equilibrium Equations: Crash Course Chemistry #29 09:29 754,831 6,514 130 559
2013-09-09 pH and pOH: Crash Course Chemistry #30 11:23 986,283 8,016 255 1,054
2013-09-16 Buffers, the Acid Rain Slayer: Crash Course Chemistry #31 11:41 571,897 5,318 81 654
2013-09-24 Kinetics: Chemistry's Demolition Derby - Crash Course Chemistry #32 09:57 512,492 4,585 66 506
2013-09-30 Crash Course Chemistry: Outtakes #2 08:29 150,776 3,043 31 436
2013-10-07 Doing Solids: Crash Course Chemistry #33 09:18 561,291 4,234 340 610
2013-10-14 Network Solids and Carbon: Crash Course Chemistry #34 08:20 207,254 2,520 55 298
2013-10-21 Silicon - The Internet's Favorite Element: Crash Course Chemistry #35 09:27 245,429 3,781 51 515
2013-10-29 Electrochemistry: Crash Course Chemistry #36 09:04 897,125 6,834 259 609
2013-11-04 The History of Atomic Chemistry: Crash Course Chemistry #37 09:42 1,030,166 8,918 259 885
2013-11-11 Nuclear Chemistry: Crash Course Chemistry #38 09:58 1,092,981 8,858 531 1,002
2013-11-19 Nuclear Chemistry Part 2: Fusion and Fission - Crash Course Chemistry #39 11:18 633,607 6,659 207 963
2013-11-25 Hydrocarbon Power! - Crash Course Chemistry #40 11:32 1,204,029 14,058 268 934
2013-12-02 Crash Course Chemistry: Outtakes #3 06:44 143,457 2,201 48 212
2013-12-09 Alkenes & Alkynes - Crash Course Chemistry #41 09:36 690,904 6,571 164 494
2013-12-16 Aromatics and Cyclic Compounds - Crash Course Chemistry #42 09:50 486,526 5,033 96 392
2013-12-23 Hydrocarbon Derivatives - Crash Course Chemistry #43 08:38 446,469 4,838 60 484
2013-12-30 Nomenclature - Crash Course Chemistry #44 09:05 850,007 7,621 331 789
2014-01-06 Polymers - Crash Course Chemistry #45 10:15 1,009,870 8,442 363 648
2014-01-13 The Global Carbon Cycle - Crash Course Chemistry #46 10:34 713,793 6,586 313 888
2014-01-20 Crash Course Chemistry: Outtakes #4 08:35 101,015 2,114 43 163